sensor_id;sensor_type;location;lat;lon;timestamp;pressure;altitude;pressure_sealevel;temperature;humidity
52291;BME280;39663;45.432;28.050;2023-04-28T00:00:31;101391.47;;;9.25;33.92
52291;BME280;39663;45.432;28.050;2023-04-28T00:01:02;101390.49;;;9.72;33.99
52291;BME280;39663;45.432;28.050;2023-04-28T00:01:34;101389.12;;;10.30;34.83
52291;BME280;39663;45.432;28.050;2023-04-28T00:02:05;101386.14;;;10.33;32.63
52291;BME280;39663;45.432;28.050;2023-04-28T00:02:37;101383.52;;;10.48;32.29
52291;BME280;39663;45.432;28.050;2023-04-28T00:03:08;101387.62;;;10.17;33.69
52291;BME280;39663;45.432;28.050;2023-04-28T00:03:40;101386.77;;;10.21;32.64
52291;BME280;39663;45.432;28.050;2023-04-28T00:04:12;101385.73;;;10.30;32.68
52291;BME280;39663;45.432;28.050;2023-04-28T00:04:44;101389.06;;;10.50;33.54
52291;BME280;39663;45.432;28.050;2023-04-28T00:05:16;101390.43;;;10.52;34.16
52291;BME280;39663;45.432;28.050;2023-04-28T00:05:47;101385.48;;;10.99;33.61
52291;BME280;39663;45.432;28.050;2023-04-28T00:06:18;101384.41;;;11.09;32.01
52291;BME280;39663;45.432;28.050;2023-04-28T00:06:50;101387.17;;;10.17;32.70
52291;BME280;39663;45.432;28.050;2023-04-28T00:07:21;101386.26;;;10.37;33.12
52291;BME280;39663;45.432;28.050;2023-04-28T00:07:53;101390.56;;;10.44;34.07
52291;BME280;39663;45.432;28.050;2023-04-28T00:08:24;101389.22;;;9.45;33.60
52291;BME280;39663;45.432;28.050;2023-04-28T00:08:55;101388.03;;;9.93;33.52
52291;BME280;39663;45.432;28.050;2023-04-28T00:09:27;101390.67;;;10.09;33.56
52291;BME280;39663;45.432;28.050;2023-04-28T00:09:58;101392.34;;;9.75;33.59
52291;BME280;39663;45.432;28.050;2023-04-28T00:10:30;101389.00;;;10.42;33.71
52291;BME280;39663;45.432;28.050;2023-04-28T00:11:02;101390.45;;;9.63;33.14
52291;BME280;39663;45.432;28.050;2023-04-28T00:11:33;101392.85;;;9.77;33.84
52291;BME280;39663;45.432;28.050;2023-04-28T00:12:05;101390.75;;;9.82;34.07
52291;BME280;39663;45.432;28.050;2023-04-28T00:12:37;101389.46;;;10.30;34.29
52291;BME280;39663;45.432;28.050;2023-04-28T00:13:08;101386.55;;;10.41;33.39
52291;BME280;39663;45.432;28.050;2023-04-28T00:13:40;101391.03;;;9.63;34.81
52291;BME280;39663;45.432;28.050;2023-04-28T00:14:12;101387.54;;;10.17;33.04
52291;BME280;39663;45.432;28.050;2023-04-28T00:14:43;101386.93;;;10.04;33.47
52291;BME280;39663;45.432;28.050;2023-04-28T00:15:15;101391.66;;;9.96;32.77
52291;BME280;39663;45.432;28.050;2023-04-28T00:15:46;101391.59;;;9.47;33.13
52291;BME280;39663;45.432;28.050;2023-04-28T00:16:19;101389.65;;;9.72;33.36
52291;BME280;39663;45.432;28.050;2023-04-28T00:16:51;101392.04;;;9.43;33.51
52291;BME280;39663;45.432;28.050;2023-04-28T00:17:22;101389.11;;;9.94;33.54
52291;BME280;39663;45.432;28.050;2023-04-28T00:17:54;101388.86;;;10.25;33.80
52291;BME280;39663;45.432;28.050;2023-04-28T00:18:25;101398.27;;;10.49;32.95
52291;BME280;39663;45.432;28.050;2023-04-28T00:18:57;101393.93;;;9.91;33.21
52291;BME280;39663;45.432;28.050;2023-04-28T00:19:29;101390.83;;;8.89;33.07
52291;BME280;39663;45.432;28.050;2023-04-28T00:20:00;101387.42;;;9.12;33.14
52291;BME280;39663;45.432;28.050;2023-04-28T00:20:32;101394.40;;;9.54;33.25
52291;BME280;39663;45.432;28.050;2023-04-28T00:21:04;101388.80;;;9.32;34.71
52291;BME280;39663;45.432;28.050;2023-04-28T00:21:35;101390.95;;;9.13;33.45
52291;BME280;39663;45.432;28.050;2023-04-28T00:22:06;101399.73;;;8.70;34.31
52291;BME280;39663;45.432;28.050;2023-04-28T00:22:38;101393.81;;;9.01;33.70
52291;BME280;39663;45.432;28.050;2023-04-28T00:23:10;101392.77;;;9.10;34.78
52291;BME280;39663;45.432;28.050;2023-04-28T00:23:42;101394.82;;;8.60;33.74
52291;BME280;39663;45.432;28.050;2023-04-28T00:24:14;101394.71;;;9.00;33.63
52291;BME280;39663;45.432;28.050;2023-04-28T00:24:45;101398.99;;;8.94;33.54
52291;BME280;39663;45.432;28.050;2023-04-28T00:25:17;101390.44;;;9.59;34.07
52291;BME280;39663;45.432;28.050;2023-04-28T00:25:50;101394.51;;;9.34;34.25
52291;BME280;39663;45.432;28.050;2023-04-28T00:26:22;101392.17;;;9.56;33.66
52291;BME280;39663;45.432;28.050;2023-04-28T00:26:53;101393.17;;;9.07;33.79
52291;BME280;39663;45.432;28.050;2023-04-28T00:27:25;101392.38;;;8.97;33.54
52291;BME280;39663;45.432;28.050;2023-04-28T00:27:56;101395.17;;;9.50;34.49
52291;BME280;39663;45.432;28.050;2023-04-28T00:28:27;101393.95;;;9.69;34.05
52291;BME280;39663;45.432;28.050;2023-04-28T00:28:59;101393.49;;;9.85;33.21
52291;BME280;39663;45.432;28.050;2023-04-28T00:29:30;101391.15;;;9.90;32.88
52291;BME280;39663;45.432;28.050;2023-04-28T00:30:02;101394.28;;;9.67;32.95
52291;BME280;39663;45.432;28.050;2023-04-28T00:30:34;101395.46;;;9.90;34.25
52291;BME280;39663;45.432;28.050;2023-04-28T00:31:10;101392.32;;;9.46;33.73
52291;BME280;39663;45.432;28.050;2023-04-28T00:31:41;101397.35;;;8.95;34.19
52291;BME280;39663;45.432;28.050;2023-04-28T00:32:13;101390.23;;;9.00;33.91
52291;BME280;39663;45.432;28.050;2023-04-28T00:32:44;101394.00;;;9.27;33.95
52291;BME280;39663;45.432;28.050;2023-04-28T00:33:15;101392.73;;;9.33;34.28
52291;BME280;39663;45.432;28.050;2023-04-28T00:33:47;101392.99;;;9.61;33.66
52291;BME280;39663;45.432;28.050;2023-04-28T00:34:18;101391.92;;;9.28;33.61
52291;BME280;39663;45.432;28.050;2023-04-28T00:34:50;101394.82;;;9.14;34.11
52291;BME280;39663;45.432;28.050;2023-04-28T00:35:21;101393.92;;;9.38;34.77
52291;BME280;39663;45.432;28.050;2023-04-28T00:35:58;101392.66;;;9.14;33.79
52291;BME280;39663;45.432;28.050;2023-04-28T00:36:30;101396.50;;;9.32;33.68
52291;BME280;39663;45.432;28.050;2023-04-28T00:37:02;101400.38;;;9.02;33.86
52291;BME280;39663;45.432;28.050;2023-04-28T00:37:35;101396.65;;;9.10;33.93
52291;BME280;39663;45.432;28.050;2023-04-28T00:38:07;101396.69;;;9.07;34.92
52291;BME280;39663;45.432;28.050;2023-04-28T00:38:39;101397.22;;;9.35;34.29
52291;BME280;39663;45.432;28.050;2023-04-28T00:39:10;101393.65;;;9.48;34.44
52291;BME280;39663;45.432;28.050;2023-04-28T00:39:42;101399.57;;;9.72;33.94
52291;BME280;39663;45.432;28.050;2023-04-28T00:40:13;101404.39;;;9.93;33.64
52291;BME280;39663;45.432;28.050;2023-04-28T00:40:45;101402.39;;;9.11;33.99
52291;BME280;39663;45.432;28.050;2023-04-28T00:41:16;101403.26;;;8.78;34.47
52291;BME280;39663;45.432;28.050;2023-04-28T00:41:48;101393.41;;;9.16;33.91
52291;BME280;39663;45.432;28.050;2023-04-28T00:42:19;101403.16;;;8.89;34.09
52291;BME280;39663;45.432;28.050;2023-04-28T00:42:51;101403.17;;;9.02;34.94
52291;BME280;39663;45.432;28.050;2023-04-28T00:43:22;101399.90;;;8.77;34.35
52291;BME280;39663;45.432;28.050;2023-04-28T00:43:54;101402.30;;;8.93;34.81
52291;BME280;39663;45.432;28.050;2023-04-28T00:44:25;101397.77;;;8.58;35.08
52291;BME280;39663;45.432;28.050;2023-04-28T00:44:57;101389.87;;;9.38;34.16
52291;BME280;39663;45.432;28.050;2023-04-28T00:45:28;101395.01;;;9.37;35.02
52291;BME280;39663;45.432;28.050;2023-04-28T00:46:00;101392.14;;;9.60;33.71
52291;BME280;39663;45.432;28.050;2023-04-28T00:46:33;101394.31;;;9.86;33.48
52291;BME280;39663;45.432;28.050;2023-04-28T00:47:04;101393.79;;;9.97;34.05
52291;BME280;39663;45.432;28.050;2023-04-28T00:47:37;101393.43;;;9.40;33.64
52291;BME280;39663;45.432;28.050;2023-04-28T00:48:08;101394.53;;;9.84;34.75
52291;BME280;39663;45.432;28.050;2023-04-28T00:48:40;101392.67;;;9.76;33.98
52291;BME280;39663;45.432;28.050;2023-04-28T00:49:12;101394.19;;;9.97;33.81
52291;BME280;39663;45.432;28.050;2023-04-28T00:49:43;101393.17;;;9.61;33.41
52291;BME280;39663;45.432;28.050;2023-04-28T00:50:15;101391.17;;;9.63;35.02
52291;BME280;39663;45.432;28.050;2023-04-28T00:50:47;101399.32;;;9.96;34.40
52291;BME280;39663;45.432;28.050;2023-04-28T00:51:19;101402.72;;;10.09;34.65
52291;BME280;39663;45.432;28.050;2023-04-28T00:51:50;101396.26;;;9.77;33.90
52291;BME280;39663;45.432;28.050;2023-04-28T00:52:21;101396.22;;;9.47;33.73
52291;BME280;39663;45.432;28.050;2023-04-28T00:52:54;101401.47;;;8.72;34.31
52291;BME280;39663;45.432;28.050;2023-04-28T00:53:25;101400.61;;;9.16;34.48
52291;BME280;39663;45.432;28.050;2023-04-28T00:53:57;101401.43;;;9.54;33.79
52291;BME280;39663;45.432;28.050;2023-04-28T00:54:29;101398.21;;;9.61;34.58
52291;BME280;39663;45.432;28.050;2023-04-28T00:55:00;101400.95;;;9.58;33.34
52291;BME280;39663;45.432;28.050;2023-04-28T00:55:33;101405.24;;;9.88;34.96
52291;BME280;39663;45.432;28.050;2023-04-28T00:56:06;101402.86;;;10.19;34.28
52291;BME280;39663;45.432;28.050;2023-04-28T00:56:37;101401.16;;;10.34;34.12
52291;BME280;39663;45.432;28.050;2023-04-28T00:57:09;101403.67;;;9.29;33.67
52291;BME280;39663;45.432;28.050;2023-04-28T00:57:41;101404.47;;;9.66;34.04
52291;BME280;39663;45.432;28.050;2023-04-28T00:58:12;101408.32;;;9.92;33.66
52291;BME280;39663;45.432;28.050;2023-04-28T00:58:44;101404.34;;;9.93;33.95
52291;BME280;39663;45.432;28.050;2023-04-28T00:59:15;101404.21;;;9.86;34.43
52291;BME280;39663;45.432;28.050;2023-04-28T00:59:46;101404.95;;;9.83;33.74
52291;BME280;39663;45.432;28.050;2023-04-28T01:00:18;101405.29;;;10.04;34.86
52291;BME280;39663;45.432;28.050;2023-04-28T01:00:49;101404.32;;;10.03;34.07
52291;BME280;39663;45.432;28.050;2023-04-28T01:01:21;101406.03;;;9.85;34.40
52291;BME280;39663;45.432;28.050;2023-04-28T01:01:53;101407.34;;;10.00;33.14
52291;BME280;39663;45.432;28.050;2023-04-28T01:02:25;101406.13;;;9.62;33.94
52291;BME280;39663;45.432;28.050;2023-04-28T01:02:58;101406.01;;;9.67;34.09
52291;BME280;39663;45.432;28.050;2023-04-28T01:03:30;101405.72;;;9.79;33.36
52291;BME280;39663;45.432;28.050;2023-04-28T01:04:04;101408.05;;;10.01;33.84
52291;BME280;39663;45.432;28.050;2023-04-28T01:04:35;101408.45;;;9.52;34.89
52291;BME280;39663;45.432;28.050;2023-04-28T01:05:07;101408.55;;;9.87;33.53
52291;BME280;39663;45.432;28.050;2023-04-28T01:05:39;101408.02;;;9.82;33.10
52291;BME280;39663;45.432;28.050;2023-04-28T01:06:11;101407.01;;;9.64;33.64
52291;BME280;39663;45.432;28.050;2023-04-28T01:06:44;101409.33;;;9.74;33.63
52291;BME280;39663;45.432;28.050;2023-04-28T01:07:16;101406.23;;;9.95;33.24
52291;BME280;39663;45.432;28.050;2023-04-28T01:07:47;101404.41;;;9.98;33.57
52291;BME280;39663;45.432;28.050;2023-04-28T01:08:22;101408.06;;;9.22;33.63
52291;BME280;39663;45.432;28.050;2023-04-28T01:08:55;101404.96;;;9.62;33.67
52291;BME280;39663;45.432;28.050;2023-04-28T01:09:26;101408.06;;;9.99;34.78
52291;BME280;39663;45.432;28.050;2023-04-28T01:09:58;101405.32;;;9.97;33.12
52291;BME280;39663;45.432;28.050;2023-04-28T01:10:29;101403.60;;;10.05;33.30
52291;BME280;39663;45.432;28.050;2023-04-28T01:11:01;101404.88;;;10.07;33.43
52291;BME280;39663;45.432;28.050;2023-04-28T01:11:32;101406.61;;;10.08;33.23
52291;BME280;39663;45.432;28.050;2023-04-28T01:12:04;101405.56;;;10.28;34.07
52291;BME280;39663;45.432;28.050;2023-04-28T01:12:36;101402.09;;;10.11;33.29
52291;BME280;39663;45.432;28.050;2023-04-28T01:13:08;101407.77;;;9.63;33.51
52291;BME280;39663;45.432;28.050;2023-04-28T01:13:39;101408.52;;;8.82;34.46
52291;BME280;39663;45.432;28.050;2023-04-28T01:14:11;101406.18;;;9.59;34.33
52291;BME280;39663;45.432;28.050;2023-04-28T01:14:43;101407.99;;;10.03;34.94
52291;BME280;39663;45.432;28.050;2023-04-28T01:15:17;101407.72;;;9.81;33.65
52291;BME280;39663;45.432;28.050;2023-04-28T01:15:49;101406.66;;;10.05;33.68
52291;BME280;39663;45.432;28.050;2023-04-28T01:16:21;101409.13;;;9.99;32.96
52291;BME280;39663;45.432;28.050;2023-04-28T01:16:53;101404.36;;;10.24;33.52
52291;BME280;39663;45.432;28.050;2023-04-28T01:17:24;101401.83;;;9.68;33.52
52291;BME280;39663;45.432;28.050;2023-04-28T01:17:56;101404.43;;;9.77;34.40
52291;BME280;39663;45.432;28.050;2023-04-28T01:18:28;101401.69;;;9.38;33.75
52291;BME280;39663;45.432;28.050;2023-04-28T01:19:01;101404.38;;;9.52;33.60
52291;BME280;39663;45.432;28.050;2023-04-28T01:19:33;101406.77;;;9.97;35.39
52291;BME280;39663;45.432;28.050;2023-04-28T01:20:05;101405.93;;;10.23;35.20
52291;BME280;39663;45.432;28.050;2023-04-28T01:20:37;101409.03;;;10.24;33.78
52291;BME280;39663;45.432;28.050;2023-04-28T01:21:09;101407.51;;;10.43;34.29
52291;BME280;39663;45.432;28.050;2023-04-28T01:21:40;101407.92;;;10.13;34.75
52291;BME280;39663;45.432;28.050;2023-04-28T01:22:11;101406.26;;;10.81;34.09
52291;BME280;39663;45.432;28.050;2023-04-28T01:22:43;101408.24;;;10.49;33.84
52291;BME280;39663;45.432;28.050;2023-04-28T01:23:16;101409.31;;;10.51;32.71
52291;BME280;39663;45.432;28.050;2023-04-28T01:23:48;101410.19;;;10.83;32.72
52291;BME280;39663;45.432;28.050;2023-04-28T01:24:19;101407.93;;;10.26;34.33
52291;BME280;39663;45.432;28.050;2023-04-28T01:24:51;101413.73;;;10.54;34.04
52291;BME280;39663;45.432;28.050;2023-04-28T01:25:23;101414.68;;;10.82;32.48
52291;BME280;39663;45.432;28.050;2023-04-28T01:25:54;101410.01;;;11.05;33.48
52291;BME280;39663;45.432;28.050;2023-04-28T01:26:26;101409.62;;;10.98;33.72
52291;BME280;39663;45.432;28.050;2023-04-28T01:26:58;101409.83;;;11.02;33.89
52291;BME280;39663;45.432;28.050;2023-04-28T01:27:29;101408.35;;;11.03;33.55
52291;BME280;39663;45.432;28.050;2023-04-28T01:28:01;101408.02;;;11.42;33.21
52291;BME280;39663;45.432;28.050;2023-04-28T01:28:33;101410.37;;;11.32;33.15
52291;BME280;39663;45.432;28.050;2023-04-28T01:29:04;101408.16;;;11.56;32.42
52291;BME280;39663;45.432;28.050;2023-04-28T01:29:35;101410.40;;;11.33;32.60
52291;BME280;39663;45.432;28.050;2023-04-28T01:30:08;101410.00;;;11.33;33.04
52291;BME280;39663;45.432;28.050;2023-04-28T01:30:40;101407.50;;;11.55;32.40
52291;BME280;39663;45.432;28.050;2023-04-28T01:31:11;101410.13;;;11.53;31.53
52291;BME280;39663;45.432;28.050;2023-04-28T01:31:43;101411.01;;;11.34;33.07
52291;BME280;39663;45.432;28.050;2023-04-28T01:32:14;101411.94;;;11.48;32.47
52291;BME280;39663;45.432;28.050;2023-04-28T01:32:46;101409.67;;;11.35;32.42
52291;BME280;39663;45.432;28.050;2023-04-28T01:33:17;101407.63;;;11.79;31.61
52291;BME280;39663;45.432;28.050;2023-04-28T01:33:49;101410.27;;;11.43;32.54
52291;BME280;39663;45.432;28.050;2023-04-28T01:34:20;101409.77;;;11.46;32.56
52291;BME280;39663;45.432;28.050;2023-04-28T01:34:52;101407.51;;;11.44;30.93
52291;BME280;39663;45.432;28.050;2023-04-28T01:35:23;101409.19;;;11.39;31.77
52291;BME280;39663;45.432;28.050;2023-04-28T01:35:57;101410.16;;;11.43;32.26
52291;BME280;39663;45.432;28.050;2023-04-28T01:36:28;101406.48;;;11.46;32.42
52291;BME280;39663;45.432;28.050;2023-04-28T01:37:00;101404.92;;;11.51;31.16
52291;BME280;39663;45.432;28.050;2023-04-28T01:37:31;101404.95;;;11.56;32.17
52291;BME280;39663;45.432;28.050;2023-04-28T01:38:02;101406.20;;;11.54;32.17
52291;BME280;39663;45.432;28.050;2023-04-28T01:38:34;101405.10;;;11.59;31.22
52291;BME280;39663;45.432;28.050;2023-04-28T01:39:05;101402.76;;;11.61;31.78
52291;BME280;39663;45.432;28.050;2023-04-28T01:39:37;101403.15;;;11.43;31.15
52291;BME280;39663;45.432;28.050;2023-04-28T01:40:09;101401.80;;;11.60;30.60
52291;BME280;39663;45.432;28.050;2023-04-28T01:40:41;101402.15;;;11.52;31.48
52291;BME280;39663;45.432;28.050;2023-04-28T01:41:13;101402.70;;;11.52;32.09
52291;BME280;39663;45.432;28.050;2023-04-28T01:41:44;101405.74;;;11.50;31.65
52291;BME280;39663;45.432;28.050;2023-04-28T01:42:15;101405.59;;;11.43;31.37
52291;BME280;39663;45.432;28.050;2023-04-28T01:42:47;101407.22;;;11.23;31.28
52291;BME280;39663;45.432;28.050;2023-04-28T01:43:19;101407.98;;;11.34;32.50
52291;BME280;39663;45.432;28.050;2023-04-28T01:43:50;101402.72;;;11.15;32.01
52291;BME280;39663;45.432;28.050;2023-04-28T01:44:22;101402.28;;;11.15;30.95
52291;BME280;39663;45.432;28.050;2023-04-28T01:44:53;101407.12;;;11.13;32.57
52291;BME280;39663;45.432;28.050;2023-04-28T01:45:25;101402.97;;;11.43;31.98
52291;BME280;39663;45.432;28.050;2023-04-28T01:45:56;101402.10;;;11.67;32.63
52291;BME280;39663;45.432;28.050;2023-04-28T01:46:28;101399.14;;;11.58;32.37
52291;BME280;39663;45.432;28.050;2023-04-28T01:46:59;101401.29;;;11.75;31.62
52291;BME280;39663;45.432;28.050;2023-04-28T01:47:31;101399.85;;;11.38;31.94
52291;BME280;39663;45.432;28.050;2023-04-28T01:48:03;101397.83;;;11.58;31.47
52291;BME280;39663;45.432;28.050;2023-04-28T01:48:34;101400.29;;;11.62;32.35
52291;BME280;39663;45.432;28.050;2023-04-28T01:49:05;101398.93;;;11.59;31.21
52291;BME280;39663;45.432;28.050;2023-04-28T01:49:37;101401.05;;;11.62;31.95
52291;BME280;39663;45.432;28.050;2023-04-28T01:50:09;101398.51;;;11.64;31.66
52291;BME280;39663;45.432;28.050;2023-04-28T01:50:40;101399.01;;;11.57;31.03
52291;BME280;39663;45.432;28.050;2023-04-28T01:51:12;101400.95;;;11.52;32.38
52291;BME280;39663;45.432;28.050;2023-04-28T01:51:43;101400.45;;;11.60;31.88
52291;BME280;39663;45.432;28.050;2023-04-28T01:52:14;101398.58;;;11.60;31.28
52291;BME280;39663;45.432;28.050;2023-04-28T01:52:46;101400.24;;;11.47;31.45
52291;BME280;39663;45.432;28.050;2023-04-28T01:53:17;101401.28;;;11.56;32.08
52291;BME280;39663;45.432;28.050;2023-04-28T01:53:49;101398.85;;;11.54;31.05
52291;BME280;39663;45.432;28.050;2023-04-28T01:54:20;101401.14;;;11.40;30.40
52291;BME280;39663;45.432;28.050;2023-04-28T01:54:52;101402.00;;;11.60;32.30
52291;BME280;39663;45.432;28.050;2023-04-28T01:55:23;101403.28;;;11.50;30.81
52291;BME280;39663;45.432;28.050;2023-04-28T01:55:55;101404.06;;;11.47;31.64
52291;BME280;39663;45.432;28.050;2023-04-28T01:56:26;101407.31;;;11.58;31.83
52291;BME280;39663;45.432;28.050;2023-04-28T01:56:57;101405.61;;;11.62;31.26
52291;BME280;39663;45.432;28.050;2023-04-28T01:57:29;101404.59;;;11.63;31.51
52291;BME280;39663;45.432;28.050;2023-04-28T01:58:01;101402.81;;;11.37;30.51
52291;BME280;39663;45.432;28.050;2023-04-28T01:58:33;101404.70;;;11.36;31.49
52291;BME280;39663;45.432;28.050;2023-04-28T01:59:04;101407.03;;;11.67;31.78
52291;BME280;39663;45.432;28.050;2023-04-28T01:59:35;101409.92;;;11.65;32.03
52291;BME280;39663;45.432;28.050;2023-04-28T02:00:08;101407.36;;;11.78;31.76
52291;BME280;39663;45.432;28.050;2023-04-28T02:00:39;101405.35;;;11.65;30.62
52291;BME280;39663;45.432;28.050;2023-04-28T02:01:10;101403.89;;;11.60;31.31
52291;BME280;39663;45.432;28.050;2023-04-28T02:01:43;101404.72;;;11.81;31.09
52291;BME280;39663;45.432;28.050;2023-04-28T02:02:14;101403.76;;;11.77;30.83
52291;BME280;39663;45.432;28.050;2023-04-28T02:02:46;101404.40;;;11.28;30.39
52291;BME280;39663;45.432;28.050;2023-04-28T02:03:17;101401.91;;;10.73;31.13
52291;BME280;39663;45.432;28.050;2023-04-28T02:03:49;101401.10;;;10.73;31.68
52291;BME280;39663;45.432;28.050;2023-04-28T02:04:20;101401.25;;;10.81;32.49
52291;BME280;39663;45.432;28.050;2023-04-28T02:04:52;101400.16;;;10.93;31.99
52291;BME280;39663;45.432;28.050;2023-04-28T02:05:23;101399.29;;;11.10;31.55
52291;BME280;39663;45.432;28.050;2023-04-28T02:05:55;101400.55;;;11.06;32.60
52291;BME280;39663;45.432;28.050;2023-04-28T02:06:27;101401.21;;;11.40;32.23
52291;BME280;39663;45.432;28.050;2023-04-28T02:06:58;101401.90;;;11.49;31.95
52291;BME280;39663;45.432;28.050;2023-04-28T02:07:30;101401.57;;;11.61;32.23
52291;BME280;39663;45.432;28.050;2023-04-28T02:08:01;101403.52;;;11.55;30.75
52291;BME280;39663;45.432;28.050;2023-04-28T02:08:33;101398.68;;;10.75;31.14
52291;BME280;39663;45.432;28.050;2023-04-28T02:09:04;101398.49;;;10.80;31.92
52291;BME280;39663;45.432;28.050;2023-04-28T02:09:35;101402.03;;;11.06;32.68
52291;BME280;39663;45.432;28.050;2023-04-28T02:10:08;101401.35;;;11.15;32.67
52291;BME280;39663;45.432;28.050;2023-04-28T02:10:39;101402.79;;;11.41;32.40
52291;BME280;39663;45.432;28.050;2023-04-28T02:11:11;101399.52;;;11.01;31.42
52291;BME280;39663;45.432;28.050;2023-04-28T02:11:42;101403.23;;;11.05;31.91
52291;BME280;39663;45.432;28.050;2023-04-28T02:12:13;101404.68;;;11.17;31.55
52291;BME280;39663;45.432;28.050;2023-04-28T02:12:45;101401.78;;;11.21;31.24
52291;BME280;39663;45.432;28.050;2023-04-28T02:13:16;101405.84;;;11.35;32.36
52291;BME280;39663;45.432;28.050;2023-04-28T02:13:47;101401.63;;;11.04;32.26
52291;BME280;39663;45.432;28.050;2023-04-28T02:14:19;101398.67;;;11.13;31.23
52291;BME280;39663;45.432;28.050;2023-04-28T02:14:50;101404.70;;;11.33;31.86
52291;BME280;39663;45.432;28.050;2023-04-28T02:15:22;101401.08;;;10.96;30.92
52291;BME280;39663;45.432;28.050;2023-04-28T02:15:54;101402.99;;;11.12;31.89
52291;BME280;39663;45.432;28.050;2023-04-28T02:16:25;101399.88;;;11.48;31.13
52291;BME280;39663;45.432;28.050;2023-04-28T02:16:58;101401.31;;;10.28;31.37
52291;BME280;39663;45.432;28.050;2023-04-28T02:17:29;101399.20;;;10.43;32.35
52291;BME280;39663;45.432;28.050;2023-04-28T02:18:01;101399.33;;;10.89;32.28
52291;BME280;39663;45.432;28.050;2023-04-28T02:18:33;101397.92;;;10.91;32.42
52291;BME280;39663;45.432;28.050;2023-04-28T02:19:05;101396.30;;;11.04;31.76
52291;BME280;39663;45.432;28.050;2023-04-28T02:19:37;101394.67;;;11.06;32.20
52291;BME280;39663;45.432;28.050;2023-04-28T02:20:09;101397.23;;;11.13;31.55
52291;BME280;39663;45.432;28.050;2023-04-28T02:20:40;101396.93;;;11.43;31.02
52291;BME280;39663;45.432;28.050;2023-04-28T02:21:12;101396.00;;;10.73;31.69
52291;BME280;39663;45.432;28.050;2023-04-28T02:21:44;101392.31;;;11.23;30.84
52291;BME280;39663;45.432;28.050;2023-04-28T02:22:15;101391.14;;;10.80;30.42
52291;BME280;39663;45.432;28.050;2023-04-28T02:22:47;101390.54;;;11.29;31.77
52291;BME280;39663;45.432;28.050;2023-04-28T02:23:18;101396.15;;;11.12;31.72
52291;BME280;39663;45.432;28.050;2023-04-28T02:23:50;101392.62;;;11.49;32.85
52291;BME280;39663;45.432;28.050;2023-04-28T02:24:21;101393.22;;;11.66;31.32
52291;BME280;39663;45.432;28.050;2023-04-28T02:24:53;101389.73;;;11.46;31.42
52291;BME280;39663;45.432;28.050;2023-04-28T02:25:24;101394.97;;;11.22;31.87
52291;BME280;39663;45.432;28.050;2023-04-28T02:26:00;101392.49;;;11.35;32.31
52291;BME280;39663;45.432;28.050;2023-04-28T02:26:33;101392.98;;;11.45;31.02
52291;BME280;39663;45.432;28.050;2023-04-28T02:27:04;101394.64;;;11.41;31.29
52291;BME280;39663;45.432;28.050;2023-04-28T02:27:36;101394.31;;;11.20;32.16
52291;BME280;39663;45.432;28.050;2023-04-28T02:28:07;101393.30;;;11.26;31.54
52291;BME280;39663;45.432;28.050;2023-04-28T02:28:39;101392.91;;;11.09;31.58
52291;BME280;39663;45.432;28.050;2023-04-28T02:29:10;101395.49;;;11.15;31.02
52291;BME280;39663;45.432;28.050;2023-04-28T02:29:42;101394.95;;;11.30;31.24
52291;BME280;39663;45.432;28.050;2023-04-28T02:30:13;101395.70;;;11.25;32.22
52291;BME280;39663;45.432;28.050;2023-04-28T02:30:45;101395.30;;;11.54;31.96
52291;BME280;39663;45.432;28.050;2023-04-28T02:31:16;101392.04;;;11.32;30.63
52291;BME280;39663;45.432;28.050;2023-04-28T02:31:48;101393.68;;;11.03;31.87
52291;BME280;39663;45.432;28.050;2023-04-28T02:32:19;101394.51;;;11.01;31.60
52291;BME280;39663;45.432;28.050;2023-04-28T02:32:51;101389.62;;;10.83;33.09
52291;BME280;39663;45.432;28.050;2023-04-28T02:33:22;101390.85;;;11.08;32.29
52291;BME280;39663;45.432;28.050;2023-04-28T02:33:54;101396.44;;;11.22;32.79
52291;BME280;39663;45.432;28.050;2023-04-28T02:34:26;101392.00;;;11.26;30.98
52291;BME280;39663;45.432;28.050;2023-04-28T02:34:58;101394.01;;;11.28;32.35
52291;BME280;39663;45.432;28.050;2023-04-28T02:35:29;101394.76;;;11.48;32.91
52291;BME280;39663;45.432;28.050;2023-04-28T02:36:01;101389.30;;;11.42;31.80
52291;BME280;39663;45.432;28.050;2023-04-28T02:36:33;101393.63;;;10.97;31.52
52291;BME280;39663;45.432;28.050;2023-04-28T02:37:05;101392.43;;;11.26;32.50
52291;BME280;39663;45.432;28.050;2023-04-28T02:37:36;101393.51;;;11.29;32.97
52291;BME280;39663;45.432;28.050;2023-04-28T02:38:08;101392.84;;;11.37;32.28
52291;BME280;39663;45.432;28.050;2023-04-28T02:38:39;101400.83;;;11.44;32.77
52291;BME280;39663;45.432;28.050;2023-04-28T02:39:11;101396.62;;;11.56;32.15
52291;BME280;39663;45.432;28.050;2023-04-28T02:39:43;101396.22;;;10.93;31.11
52291;BME280;39663;45.432;28.050;2023-04-28T02:40:14;101397.72;;;11.35;31.43
52291;BME280;39663;45.432;28.050;2023-04-28T02:40:46;101394.92;;;11.10;30.70
52291;BME280;39663;45.432;28.050;2023-04-28T02:41:17;101396.38;;;11.24;32.28
52291;BME280;39663;45.432;28.050;2023-04-28T02:41:49;101394.89;;;11.39;31.41
52291;BME280;39663;45.432;28.050;2023-04-28T02:42:20;101398.79;;;11.25;30.86
52291;BME280;39663;45.432;28.050;2023-04-28T02:42:52;101397.03;;;11.16;32.09
52291;BME280;39663;45.432;28.050;2023-04-28T02:43:23;101394.63;;;11.34;32.44
52291;BME280;39663;45.432;28.050;2023-04-28T02:43:54;101393.89;;;10.89;31.15
52291;BME280;39663;45.432;28.050;2023-04-28T02:44:26;101393.02;;;10.47;31.86